sensor_id;sensor_type;location;lat;lon;timestamp;P1;durP1;ratioP1;P2;durP2;ratioP2
15240;SDS011;7723;52.170;9.978;2023-07-20T00:02:10;3.45;;;2.22;;
15240;SDS011;7723;52.170;9.978;2023-07-20T00:04:37;4.78;;;2.35;;
15240;SDS011;7723;52.170;9.978;2023-07-20T00:07:05;3.50;;;2.25;;
15240;SDS011;7723;52.170;9.978;2023-07-20T00:09:32;5.32;;;2.20;;
15240;SDS011;7723;52.170;9.978;2023-07-20T00:12:00;5.57;;;2.40;;
15240;SDS011;7723;52.170;9.978;2023-07-20T00:14:27;4.18;;;2.33;;
15240;SDS011;7723;52.170;9.978;2023-07-20T00:16:55;6.40;;;2.70;;
15240;SDS011;7723;52.170;9.978;2023-07-20T00:19:23;4.63;;;2.17;;
15240;SDS011;7723;52.170;9.978;2023-07-20T00:21:50;3.55;;;2.20;;
15240;SDS011;7723;52.170;9.978;2023-07-20T00:24:18;4.25;;;2.50;;
15240;SDS011;7723;52.170;9.978;2023-07-20T00:26:45;4.53;;;2.08;;
15240;SDS011;7723;52.170;9.978;2023-07-20T00:29:14;4.78;;;2.72;;
15240;SDS011;7723;52.170;9.978;2023-07-20T00:31:41;2.58;;;2.10;;
15240;SDS011;7723;52.170;9.978;2023-07-20T00:34:08;3.72;;;2.10;;
15240;SDS011;7723;52.170;9.978;2023-07-20T00:36:36;4.53;;;2.10;;
15240;SDS011;7723;52.170;9.978;2023-07-20T00:39:03;4.72;;;2.25;;
15240;SDS011;7723;52.170;9.978;2023-07-20T00:41:30;2.22;;;1.70;;
15240;SDS011;7723;52.170;9.978;2023-07-20T00:43:58;2.00;;;1.60;;
15240;SDS011;7723;52.170;9.978;2023-07-20T00:46:26;3.63;;;2.22;;
15240;SDS011;7723;52.170;9.978;2023-07-20T00:48:53;3.65;;;2.15;;
15240;SDS011;7723;52.170;9.978;2023-07-20T00:51:21;5.22;;;1.95;;
15240;SDS011;7723;52.170;9.978;2023-07-20T00:53:50;2.50;;;2.30;;
15240;SDS011;7723;52.170;9.978;2023-07-20T00:56:17;2.55;;;2.00;;
15240;SDS011;7723;52.170;9.978;2023-07-20T00:58:44;1.95;;;1.75;;
15240;SDS011;7723;52.170;9.978;2023-07-20T01:01:12;6.07;;;2.08;;
15240;SDS011;7723;52.170;9.978;2023-07-20T01:03:40;2.38;;;1.85;;
15240;SDS011;7723;52.170;9.978;2023-07-20T01:06:10;2.88;;;1.83;;
15240;SDS011;7723;52.170;9.978;2023-07-20T01:08:46;2.20;;;1.75;;
15240;SDS011;7723;52.170;9.978;2023-07-20T01:11:24;1.88;;;1.63;;
15240;SDS011;7723;52.170;9.978;2023-07-20T01:13:57;1.80;;;1.67;;
15240;SDS011;7723;52.170;9.978;2023-07-20T01:16:25;3.08;;;1.83;;
15240;SDS011;7723;52.170;9.978;2023-07-20T01:18:55;2.33;;;1.80;;
15240;SDS011;7723;52.170;9.978;2023-07-20T01:21:24;2.25;;;1.90;;
15240;SDS011;7723;52.170;9.978;2023-07-20T01:24:07;3.75;;;1.70;;
15240;SDS011;7723;52.170;9.978;2023-07-20T01:27:00;5.13;;;2.10;;
15240;SDS011;7723;52.170;9.978;2023-07-20T01:30:03;3.78;;;1.80;;
15240;SDS011;7723;52.170;9.978;2023-07-20T01:32:42;5.50;;;1.98;;
15240;SDS011;7723;52.170;9.978;2023-07-20T01:35:11;4.45;;;1.60;;
15240;SDS011;7723;52.170;9.978;2023-07-20T01:37:40;3.53;;;1.90;;
15240;SDS011;7723;52.170;9.978;2023-07-20T01:40:09;4.55;;;2.55;;
15240;SDS011;7723;52.170;9.978;2023-07-20T01:42:38;3.92;;;1.80;;
15240;SDS011;7723;52.170;9.978;2023-07-20T01:45:09;2.05;;;1.83;;
15240;SDS011;7723;52.170;9.978;2023-07-20T01:47:36;3.50;;;2.38;;
15240;SDS011;7723;52.170;9.978;2023-07-20T01:50:05;4.15;;;2.00;;
15240;SDS011;7723;52.170;9.978;2023-07-20T01:52:33;4.35;;;2.17;;
15240;SDS011;7723;52.170;9.978;2023-07-20T01:55:00;2.63;;;1.98;;
15240;SDS011;7723;52.170;9.978;2023-07-20T01:57:27;2.08;;;1.60;;
15240;SDS011;7723;52.170;9.978;2023-07-20T01:59:54;10.38;;;2.50;;
15240;SDS011;7723;52.170;9.978;2023-07-20T02:02:22;3.10;;;1.95;;
15240;SDS011;7723;52.170;9.978;2023-07-20T02:04:52;3.28;;;1.95;;
15240;SDS011;7723;52.170;9.978;2023-07-20T02:07:21;4.18;;;1.90;;
15240;SDS011;7723;52.170;9.978;2023-07-20T02:09:48;4.70;;;1.67;;
15240;SDS011;7723;52.170;9.978;2023-07-20T02:12:15;3.90;;;1.77;;
15240;SDS011;7723;52.170;9.978;2023-07-20T02:14:42;2.30;;;1.65;;
15240;SDS011;7723;52.170;9.978;2023-07-20T02:17:09;4.07;;;1.40;;
15240;SDS011;7723;52.170;9.978;2023-07-20T02:19:37;2.72;;;1.73;;
15240;SDS011;7723;52.170;9.978;2023-07-20T02:22:04;2.42;;;1.85;;
15240;SDS011;7723;52.170;9.978;2023-07-20T02:24:34;3.08;;;1.83;;
15240;SDS011;7723;52.170;9.978;2023-07-20T02:27:01;2.63;;;2.03;;
15240;SDS011;7723;52.170;9.978;2023-07-20T02:29:28;2.10;;;1.90;;
15240;SDS011;7723;52.170;9.978;2023-07-20T02:31:55;7.68;;;2.08;;
15240;SDS011;7723;52.170;9.978;2023-07-20T02:34:22;2.35;;;1.80;;
15240;SDS011;7723;52.170;9.978;2023-07-20T02:36:49;3.63;;;1.85;;
15240;SDS011;7723;52.170;9.978;2023-07-20T02:39:16;4.82;;;2.13;;
15240;SDS011;7723;52.170;9.978;2023-07-20T02:41:45;5.60;;;1.83;;
15240;SDS011;7723;52.170;9.978;2023-07-20T02:44:12;2.50;;;1.60;;
15240;SDS011;7723;52.170;9.978;2023-07-20T02:46:40;6.95;;;2.97;;
15240;SDS011;7723;52.170;9.978;2023-07-20T02:49:07;3.67;;;1.90;;
15240;SDS011;7723;52.170;9.978;2023-07-20T02:51:34;2.33;;;2.08;;
15240;SDS011;7723;52.170;9.978;2023-07-20T02:54:01;3.15;;;2.10;;
15240;SDS011;7723;52.170;9.978;2023-07-20T02:56:30;2.50;;;1.77;;
15240;SDS011;7723;52.170;9.978;2023-07-20T02:59:03;4.45;;;2.00;;
15240;SDS011;7723;52.170;9.978;2023-07-20T03:01:30;4.22;;;2.22;;
15240;SDS011;7723;52.170;9.978;2023-07-20T03:03:57;2.55;;;2.00;;
15240;SDS011;7723;52.170;9.978;2023-07-20T03:06:24;3.80;;;1.70;;
15240;SDS011;7723;52.170;9.978;2023-07-20T03:08:52;2.70;;;1.80;;
15240;SDS011;7723;52.170;9.978;2023-07-20T03:11:19;2.45;;;1.30;;
15240;SDS011;7723;52.170;9.978;2023-07-20T03:13:47;2.25;;;1.63;;
15240;SDS011;7723;52.170;9.978;2023-07-20T03:16:17;2.03;;;1.42;;
15240;SDS011;7723;52.170;9.978;2023-07-20T03:18:45;1.95;;;1.67;;
15240;SDS011;7723;52.170;9.978;2023-07-20T03:21:13;2.10;;;1.65;;
15240;SDS011;7723;52.170;9.978;2023-07-20T03:23:40;3.33;;;1.50;;
15240;SDS011;7723;52.170;9.978;2023-07-20T03:26:08;2.55;;;1.67;;
15240;SDS011;7723;52.170;9.978;2023-07-20T03:28:35;4.05;;;1.90;;
15240;SDS011;7723;52.170;9.978;2023-07-20T03:31:02;2.40;;;1.60;;
15240;SDS011;7723;52.170;9.978;2023-07-20T03:33:31;5.57;;;1.63;;
15240;SDS011;7723;52.170;9.978;2023-07-20T03:35:59;1.95;;;1.50;;
15240;SDS011;7723;52.170;9.978;2023-07-20T03:38:26;2.40;;;1.60;;
15240;SDS011;7723;52.170;9.978;2023-07-20T03:40:54;1.98;;;1.42;;
15240;SDS011;7723;52.170;9.978;2023-07-20T03:43:22;2.22;;;1.45;;
15240;SDS011;7723;52.170;9.978;2023-07-20T03:45:51;2.22;;;1.60;;
15240;SDS011;7723;52.170;9.978;2023-07-20T03:48:19;2.10;;;1.90;;
15240;SDS011;7723;52.170;9.978;2023-07-20T03:50:49;3.35;;;1.27;;
15240;SDS011;7723;52.170;9.978;2023-07-20T03:53:17;4.70;;;1.65;;
15240;SDS011;7723;52.170;9.978;2023-07-20T03:55:45;3.97;;;1.80;;
15240;SDS011;7723;52.170;9.978;2023-07-20T03:58:12;3.33;;;1.95;;
15240;SDS011;7723;52.170;9.978;2023-07-20T04:00:42;2.92;;;1.65;;
15240;SDS011;7723;52.170;9.978;2023-07-20T04:03:11;3.65;;;1.65;;
15240;SDS011;7723;52.170;9.978;2023-07-20T04:05:38;4.55;;;1.80;;
15240;SDS011;7723;52.170;9.978;2023-07-20T04:08:06;2.78;;;1.80;;
15240;SDS011;7723;52.170;9.978;2023-07-20T04:10:34;5.03;;;1.63;;
15240;SDS011;7723;52.170;9.978;2023-07-20T04:13:01;5.55;;;1.50;;
15240;SDS011;7723;52.170;9.978;2023-07-20T04:15:31;3.50;;;1.48;;
15240;SDS011;7723;52.170;9.978;2023-07-20T04:17:58;2.63;;;2.05;;
15240;SDS011;7723;52.170;9.978;2023-07-20T04:20:26;2.53;;;2.05;;
15240;SDS011;7723;52.170;9.978;2023-07-20T04:22:53;5.85;;;2.55;;
15240;SDS011;7723;52.170;9.978;2023-07-20T04:25:21;5.65;;;2.85;;
15240;SDS011;7723;52.170;9.978;2023-07-20T04:27:48;5.22;;;2.97;;
15240;SDS011;7723;52.170;9.978;2023-07-20T04:30:17;5.05;;;2.92;;
15240;SDS011;7723;52.170;9.978;2023-07-20T04:32:46;3.95;;;2.80;;
15240;SDS011;7723;52.170;9.978;2023-07-20T04:35:16;3.08;;;2.78;;
15240;SDS011;7723;52.170;9.978;2023-07-20T04:37:44;2.92;;;2.03;;
15240;SDS011;7723;52.170;9.978;2023-07-20T04:40:12;2.40;;;1.90;;
15240;SDS011;7723;52.170;9.978;2023-07-20T04:42:41;2.35;;;2.00;;
15240;SDS011;7723;52.170;9.978;2023-07-20T04:45:08;2.25;;;2.05;;
15240;SDS011;7723;52.170;9.978;2023-07-20T04:47:36;5.35;;;1.63;;
15240;SDS011;7723;52.170;9.978;2023-07-20T04:50:03;2.92;;;1.85;;
15240;SDS011;7723;52.170;9.978;2023-07-20T04:52:30;3.53;;;1.70;;
15240;SDS011;7723;52.170;9.978;2023-07-20T04:54:58;4.40;;;2.05;;
15240;SDS011;7723;52.170;9.978;2023-07-20T04:57:25;2.45;;;1.33;;
15240;SDS011;7723;52.170;9.978;2023-07-20T04:59:53;2.15;;;1.58;;
15240;SDS011;7723;52.170;9.978;2023-07-20T05:02:20;3.15;;;1.50;;
15240;SDS011;7723;52.170;9.978;2023-07-20T05:04:47;2.47;;;1.60;;
15240;SDS011;7723;52.170;9.978;2023-07-20T05:07:14;1.83;;;1.60;;
15240;SDS011;7723;52.170;9.978;2023-07-20T05:09:41;4.25;;;1.40;;
15240;SDS011;7723;52.170;9.978;2023-07-20T05:12:09;1.08;;;0.88;;
15240;SDS011;7723;52.170;9.978;2023-07-20T05:14:37;2.28;;;1.00;;
15240;SDS011;7723;52.170;9.978;2023-07-20T05:17:06;1.17;;;1.08;;
15240;SDS011;7723;52.170;9.978;2023-07-20T05:19:33;3.22;;;1.10;;
15240;SDS011;7723;52.170;9.978;2023-07-20T05:22:00;4.70;;;1.30;;
15240;SDS011;7723;52.170;9.978;2023-07-20T05:24:27;3.00;;;1.10;;
15240;SDS011;7723;52.170;9.978;2023-07-20T05:26:54;1.40;;;1.30;;
15240;SDS011;7723;52.170;9.978;2023-07-20T05:29:21;2.45;;;1.48;;
15240;SDS011;7723;52.170;9.978;2023-07-20T05:31:48;2.47;;;1.50;;
15240;SDS011;7723;52.170;9.978;2023-07-20T05:34:17;2.95;;;1.60;;
15240;SDS011;7723;52.170;9.978;2023-07-20T05:39:38;2.45;;;1.65;;
15240;SDS011;7723;52.170;9.978;2023-07-20T05:42:05;2.83;;;1.65;;
15240;SDS011;7723;52.170;9.978;2023-07-20T05:44:32;1.80;;;1.50;;
15240;SDS011;7723;52.170;9.978;2023-07-20T05:46:59;1.77;;;1.40;;
15240;SDS011;7723;52.170;9.978;2023-07-20T05:49:29;2.25;;;1.45;;
15240;SDS011;7723;52.170;9.978;2023-07-20T05:51:56;2.90;;;1.50;;
15240;SDS011;7723;52.170;9.978;2023-07-20T05:54:23;1.50;;;1.08;;
15240;SDS011;7723;52.170;9.978;2023-07-20T05:56:51;2.53;;;1.17;;
15240;SDS011;7723;52.170;9.978;2023-07-20T05:59:18;1.10;;;0.98;;
15240;SDS011;7723;52.170;9.978;2023-07-20T06:01:45;2.13;;;1.10;;
15240;SDS011;7723;52.170;9.978;2023-07-20T06:04:13;2.42;;;0.95;;
15240;SDS011;7723;52.170;9.978;2023-07-20T06:06:42;1.65;;;1.20;;
15240;SDS011;7723;52.170;9.978;2023-07-20T06:09:10;1.30;;;1.20;;
15240;SDS011;7723;52.170;9.978;2023-07-20T06:11:39;1.85;;;1.17;;
15240;SDS011;7723;52.170;9.978;2023-07-20T06:14:06;1.85;;;1.25;;
15240;SDS011;7723;52.170;9.978;2023-07-20T06:16:34;2.40;;;1.10;;
15240;SDS011;7723;52.170;9.978;2023-07-20T06:19:01;2.97;;;1.35;;
15240;SDS011;7723;52.170;9.978;2023-07-20T06:21:29;1.52;;;1.20;;
15240;SDS011;7723;52.170;9.978;2023-07-20T06:23:57;2.75;;;1.38;;
15240;SDS011;7723;52.170;9.978;2023-07-20T06:26:24;1.35;;;1.25;;
15240;SDS011;7723;52.170;9.978;2023-07-20T06:28:52;2.30;;;1.30;;
15240;SDS011;7723;52.170;9.978;2023-07-20T06:31:19;2.00;;;1.58;;
15240;SDS011;7723;52.170;9.978;2023-07-20T06:33:46;2.67;;;1.70;;
15240;SDS011;7723;52.170;9.978;2023-07-20T06:36:15;2.40;;;1.63;;
15240;SDS011;7723;52.170;9.978;2023-07-20T06:38:44;3.47;;;2.08;;
15240;SDS011;7723;52.170;9.978;2023-07-20T06:41:12;5.38;;;3.50;;
15240;SDS011;7723;52.170;9.978;2023-07-20T06:43:40;5.10;;;3.33;;
15240;SDS011;7723;52.170;9.978;2023-07-20T06:46:07;4.28;;;3.33;;
15240;SDS011;7723;52.170;9.978;2023-07-20T06:48:34;3.00;;;2.70;;
15240;SDS011;7723;52.170;9.978;2023-07-20T06:51:02;3.67;;;2.78;;
15240;SDS011;7723;52.170;9.978;2023-07-20T06:53:29;3.15;;;1.98;;
15240;SDS011;7723;52.170;9.978;2023-07-20T06:55:56;3.42;;;2.50;;
15240;SDS011;7723;52.170;9.978;2023-07-20T06:58:25;2.55;;;2.28;;
15240;SDS011;7723;52.170;9.978;2023-07-20T07:00:53;2.33;;;2.13;;
15240;SDS011;7723;52.170;9.978;2023-07-20T07:03:20;3.83;;;2.10;;
15240;SDS011;7723;52.170;9.978;2023-07-20T07:05:48;2.08;;;1.70;;
15240;SDS011;7723;52.170;9.978;2023-07-20T07:08:17;1.85;;;1.73;;
15240;SDS011;7723;52.170;9.978;2023-07-20T07:10:44;2.20;;;2.00;;
15240;SDS011;7723;52.170;9.978;2023-07-20T07:13:11;2.78;;;2.30;;
15240;SDS011;7723;52.170;9.978;2023-07-20T07:15:41;2.65;;;2.42;;
15240;SDS011;7723;52.170;9.978;2023-07-20T07:18:09;4.90;;;2.60;;
15240;SDS011;7723;52.170;9.978;2023-07-20T07:20:36;2.10;;;1.90;;
15240;SDS011;7723;52.170;9.978;2023-07-20T07:23:03;2.15;;;1.95;;
15240;SDS011;7723;52.170;9.978;2023-07-20T07:25:30;3.10;;;1.90;;
15240;SDS011;7723;52.170;9.978;2023-07-20T07:27:57;1.88;;;1.77;;
15240;SDS011;7723;52.170;9.978;2023-07-20T07:30:25;1.80;;;1.67;;
15240;SDS011;7723;52.170;9.978;2023-07-20T07:32:53;1.83;;;1.70;;
15240;SDS011;7723;52.170;9.978;2023-07-20T07:35:20;1.95;;;1.73;;
15240;SDS011;7723;52.170;9.978;2023-07-20T07:37:47;1.75;;;1.65;;
15240;SDS011;7723;52.170;9.978;2023-07-20T07:40:15;1.50;;;1.40;;
15240;SDS011;7723;52.170;9.978;2023-07-20T07:42:42;2.03;;;1.70;;
15240;SDS011;7723;52.170;9.978;2023-07-20T07:45:09;2.88;;;1.63;;
15240;SDS011;7723;52.170;9.978;2023-07-20T07:47:36;2.57;;;1.70;;
15240;SDS011;7723;52.170;9.978;2023-07-20T07:50:05;2.17;;;1.73;;
15240;SDS011;7723;52.170;9.978;2023-07-20T07:52:33;1.90;;;1.73;;
15240;SDS011;7723;52.170;9.978;2023-07-20T07:55:00;1.90;;;1.80;;
15240;SDS011;7723;52.170;9.978;2023-07-20T07:57:29;2.15;;;1.80;;
15240;SDS011;7723;52.170;9.978;2023-07-20T07:59:56;2.20;;;2.00;;
15240;SDS011;7723;52.170;9.978;2023-07-20T08:02:23;1.45;;;1.35;;
15240;SDS011;7723;52.170;9.978;2023-07-20T08:04:51;2.47;;;1.40;;
15240;SDS011;7723;52.170;9.978;2023-07-20T08:07:19;1.45;;;1.35;;
15240;SDS011;7723;52.170;9.978;2023-07-20T08:09:47;1.92;;;1.73;;
15240;SDS011;7723;52.170;9.978;2023-07-20T08:12:14;2.63;;;1.50;;
15240;SDS011;7723;52.170;9.978;2023-07-20T08:14:42;2.05;;;1.88;;
15240;SDS011;7723;52.170;9.978;2023-07-20T08:17:09;1.77;;;1.67;;
15240;SDS011;7723;52.170;9.978;2023-07-20T08:19:37;2.15;;;1.70;;
15240;SDS011;7723;52.170;9.978;2023-07-20T08:22:07;1.55;;;1.45;;
15240;SDS011;7723;52.170;9.978;2023-07-20T08:24:38;2.05;;;1.95;;
15240;SDS011;7723;52.170;9.978;2023-07-20T08:27:05;2.47;;;1.80;;
15240;SDS011;7723;52.170;9.978;2023-07-20T08:29:33;1.98;;;1.52;;
15240;SDS011;7723;52.170;9.978;2023-07-20T08:32:00;1.73;;;1.63;;
15240;SDS011;7723;52.170;9.978;2023-07-20T08:34:29;2.40;;;1.60;;
15240;SDS011;7723;52.170;9.978;2023-07-20T08:36:56;3.38;;;1.90;;
15240;SDS011;7723;52.170;9.978;2023-07-20T08:39:23;2.45;;;1.40;;
15240;SDS011;7723;52.170;9.978;2023-07-20T08:41:52;1.15;;;1.05;;
15240;SDS011;7723;52.170;9.978;2023-07-20T08:44:21;1.63;;;1.52;;
15240;SDS011;7723;52.170;9.978;2023-07-20T08:46:48;1.88;;;1.65;;
15240;SDS011;7723;52.170;9.978;2023-07-20T08:49:16;1.67;;;1.58;;
15240;SDS011;7723;52.170;9.978;2023-07-20T08:51:45;1.20;;;1.08;;
15240;SDS011;7723;52.170;9.978;2023-07-20T08:54:13;1.20;;;1.10;;
15240;SDS011;7723;52.170;9.978;2023-07-20T08:56:41;1.23;;;1.13;;
15240;SDS011;7723;52.170;9.978;2023-07-20T08:59:13;1.85;;;1.30;;
15240;SDS011;7723;52.170;9.978;2023-07-20T09:01:44;1.67;;;1.30;;
15240;SDS011;7723;52.170;9.978;2023-07-20T09:04:12;1.23;;;1.10;;
15240;SDS011;7723;52.170;9.978;2023-07-20T09:06:39;1.40;;;1.30;;
15240;SDS011;7723;52.170;9.978;2023-07-20T09:09:06;1.27;;;1.13;;
15240;SDS011;7723;52.170;9.978;2023-07-20T09:11:33;1.42;;;1.23;;
15240;SDS011;7723;52.170;9.978;2023-07-20T09:14:04;1.52;;;1.42;;
15240;SDS011;7723;52.170;9.978;2023-07-20T09:16:34;2.58;;;1.90;;
15240;SDS011;7723;52.170;9.978;2023-07-20T09:19:14;1.60;;;1.50;;
15240;SDS011;7723;52.170;9.978;2023-07-20T09:21:43;3.28;;;1.48;;
15240;SDS011;7723;52.170;9.978;2023-07-20T09:24:12;1.30;;;1.20;;
15240;SDS011;7723;52.170;9.978;2023-07-20T09:26:43;3.20;;;1.70;;
15240;SDS011;7723;52.170;9.978;2023-07-20T09:29:13;2.55;;;1.30;;
15240;SDS011;7723;52.170;9.978;2023-07-20T09:31:42;1.60;;;1.50;;
15240;SDS011;7723;52.170;9.978;2023-07-20T09:34:10;2.63;;;1.70;;
15240;SDS011;7723;52.170;9.978;2023-07-20T09:36:37;1.95;;;1.50;;
15240;SDS011;7723;52.170;9.978;2023-07-20T09:39:05;1.17;;;1.02;;
15240;SDS011;7723;52.170;9.978;2023-07-20T09:41:39;1.55;;;0.90;;
15240;SDS011;7723;52.170;9.978;2023-07-20T09:44:07;1.20;;;1.00;;
15240;SDS011;7723;52.170;9.978;2023-07-20T09:46:44;1.05;;;1.00;;
15240;SDS011;7723;52.170;9.978;2023-07-20T09:49:13;0.95;;;0.93;;
15240;SDS011;7723;52.170;9.978;2023-07-20T09:51:40;1.25;;;1.13;;
15240;SDS011;7723;52.170;9.978;2023-07-20T09:54:07;3.58;;;1.33;;
15240;SDS011;7723;52.170;9.978;2023-07-20T09:56:35;1.35;;;0.93;;
15240;SDS011;7723;52.170;9.978;2023-07-20T09:59:03;1.92;;;0.85;;
15240;SDS011;7723;52.170;9.978;2023-07-20T10:01:31;1.20;;;1.10;;
15240;SDS011;7723;52.170;9.978;2023-07-20T10:04:02;1.00;;;0.90;;
15240;SDS011;7723;52.170;9.978;2023-07-20T10:06:31;1.10;;;1.00;;
15240;SDS011;7723;52.170;9.978;2023-07-20T10:09:04;1.73;;;1.00;;
15240;SDS011;7723;52.170;9.978;2023-07-20T10:11:34;1.58;;;1.00;;
15240;SDS011;7723;52.170;9.978;2023-07-20T10:14:03;1.00;;;1.00;;
15240;SDS011;7723;52.170;9.978;2023-07-20T10:16:35;1.05;;;0.95;;
15240;SDS011;7723;52.170;9.978;2023-07-20T10:19:17;1.00;;;0.80;;
15240;SDS011;7723;52.170;9.978;2023-07-20T10:21:51;1.60;;;1.10;;
15240;SDS011;7723;52.170;9.978;2023-07-20T10:24:27;1.30;;;0.95;;
15240;SDS011;7723;52.170;9.978;2023-07-20T10:26:55;1.20;;;1.10;;
15240;SDS011;7723;52.170;9.978;2023-07-20T10:29:22;0.75;;;0.75;;
15240;SDS011;7723;52.170;9.978;2023-07-20T10:31:52;0.80;;;0.80;;
15240;SDS011;7723;52.170;9.978;2023-07-20T10:34:22;1.33;;;0.88;;
15240;SDS011;7723;52.170;9.978;2023-07-20T10:36:50;0.70;;;0.70;;
15240;SDS011;7723;52.170;9.978;2023-07-20T10:39:23;1.42;;;1.02;;
15240;SDS011;7723;52.170;9.978;2023-07-20T10:41:59;1.58;;;1.00;;
15240;SDS011;7723;52.170;9.978;2023-07-20T10:44:27;2.15;;;0.80;;
15240;SDS011;7723;52.170;9.978;2023-07-20T10:46:58;1.30;;;0.82;;
15240;SDS011;7723;52.170;9.978;2023-07-20T10:49:28;1.45;;;0.90;;
15240;SDS011;7723;52.170;9.978;2023-07-20T10:51:56;1.08;;;0.98;;
15240;SDS011;7723;52.170;9.978;2023-07-20T10:54:34;1.15;;;0.93;;
15240;SDS011;7723;52.170;9.978;2023-07-20T10:57:23;1.00;;;0.80;;
15240;SDS011;7723;52.170;9.978;2023-07-20T11:00:06;0.80;;;0.80;;
15240;SDS011;7723;52.170;9.978;2023-07-20T11:02:43;0.85;;;0.73;;
15240;SDS011;7723;52.170;9.978;2023-07-20T11:08:03;0.95;;;0.90;;
15240;SDS011;7723;52.170;9.978;2023-07-20T11:10:31;11.90;;;1.48;;
15240;SDS011;7723;52.170;9.978;2023-07-20T11:13:18;2.15;;;1.00;;
15240;SDS011;7723;52.170;9.978;2023-07-20T11:15:48;1.10;;;1.00;;
15240;SDS011;7723;52.170;9.978;2023-07-20T11:18:28;0.80;;;0.65;;
15240;SDS011;7723;52.170;9.978;2023-07-20T11:20:57;0.75;;;0.75;;
15240;SDS011;7723;52.170;9.978;2023-07-20T11:23:24;1.75;;;0.80;;
15240;SDS011;7723;52.170;9.978;2023-07-20T11:25:52;1.52;;;0.68;;
15240;SDS011;7723;52.170;9.978;2023-07-20T11:28:19;1.00;;;0.90;;
15240;SDS011;7723;52.170;9.978;2023-07-20T11:30:50;0.98;;;0.60;;
15240;SDS011;7723;52.170;9.978;2023-07-20T11:33:19;1.95;;;0.63;;
15240;SDS011;7723;52.170;9.978;2023-07-20T11:35:46;2.50;;;1.02;;
15240;SDS011;7723;52.170;9.978;2023-07-20T11:38:17;1.52;;;0.77;;
15240;SDS011;7723;52.170;9.978;2023-07-20T11:40:45;1.08;;;0.60;;
15240;SDS011;7723;52.170;9.978;2023-07-20T11:43:13;1.08;;;0.63;;
15240;SDS011;7723;52.170;9.978;2023-07-20T11:45:40;1.15;;;0.80;;
15240;SDS011;7723;52.170;9.978;2023-07-20T11:48:07;5.15;;;0.68;;
15240;SDS011;7723;52.170;9.978;2023-07-20T11:50:41;1.95;;;0.90;;
15240;SDS011;7723;52.170;9.978;2023-07-20T11:53:10;0.75;;;0.75;;
15240;SDS011;7723;52.170;9.978;2023-07-20T11:55:39;0.77;;;0.75;;
15240;SDS011;7723;52.170;9.978;2023-07-20T11:58:07;0.93;;;0.80;;
15240;SDS011;7723;52.170;9.978;2023-07-20T12:00:36;2.35;;;0.75;;
15240;SDS011;7723;52.170;9.978;2023-07-20T12:03:05;0.65;;;0.50;;
15240;SDS011;7723;52.170;9.978;2023-07-20T12:05:33;1.40;;;0.77;;
15240;SDS011;7723;52.170;9.978;2023-07-20T12:08:00;0.90;;;0.70;;
15240;SDS011;7723;52.170;9.978;2023-07-20T12:10:28;0.82;;;0.68;;
15240;SDS011;7723;52.170;9.978;2023-07-20T12:13:00;0.95;;;0.85;;
15240;SDS011;7723;52.170;9.978;2023-07-20T12:15:29;0.77;;;0.77;;
15240;SDS011;7723;52.170;9.978;2023-07-20T12:17:57;2.47;;;0.80;;
15240;SDS011;7723;52.170;9.978;2023-07-20T12:20:26;0.70;;;0.70;;
15240;SDS011;7723;52.170;9.978;2023-07-20T12:22:59;0.88;;;0.88;;
15240;SDS011;7723;52.170;9.978;2023-07-20T12:25:33;1.30;;;0.90;;
15240;SDS011;7723;52.170;9.978;2023-07-20T12:28:06;1.00;;;0.80;;
15240;SDS011;7723;52.170;9.978;2023-07-20T12:30:34;0.90;;;0.90;;
15240;SDS011;7723;52.170;9.978;2023-07-20T12:33:03;1.60;;;0.90;;
15240;SDS011;7723;52.170;9.978;2023-07-20T12:35:30;3.22;;;1.38;;
15240;SDS011;7723;52.170;9.978;2023-07-20T12:37:58;1.13;;;0.80;;
15240;SDS011;7723;52.170;9.978;2023-07-20T12:40:25;0.90;;;0.90;;
15240;SDS011;7723;52.170;9.978;2023-07-20T12:42:53;0.90;;;0.80;;
15240;SDS011;7723;52.170;9.978;2023-07-20T12:45:21;0.90;;;0.90;;
15240;SDS011;7723;52.170;9.978;2023-07-20T12:47:49;1.38;;;1.08;;
15240;SDS011;7723;52.170;9.978;2023-07-20T12:50:16;0.98;;;0.90;;
15240;SDS011;7723;52.170;9.978;2023-07-20T12:52:43;1.30;;;1.20;;
15240;SDS011;7723;52.170;9.978;2023-07-20T12:55:11;1.08;;;0.90;;
15240;SDS011;7723;52.170;9.978;2023-07-20T12:57:38;1.63;;;0.90;;
15240;SDS011;7723;52.170;9.978;2023-07-20T13:00:09;1.10;;;0.90;;
15240;SDS011;7723;52.170;9.978;2023-07-20T13:02:44;1.10;;;1.00;;
15240;SDS011;7723;52.170;9.978;2023-07-20T13:05:14;1.50;;;1.02;;
15240;SDS011;7723;52.170;9.978;2023-07-20T13:07:41;2.63;;;1.15;;
15240;SDS011;7723;52.170;9.978;2023-07-20T13:10:09;0.73;;;0.73;;
15240;SDS011;7723;52.170;9.978;2023-07-20T13:12:37;1.25;;;0.80;;
15240;SDS011;7723;52.170;9.978;2023-07-20T13:15:05;1.83;;;0.88;;
15240;SDS011;7723;52.170;9.978;2023-07-20T13:17:34;1.50;;;0.70;;
15240;SDS011;7723;52.170;9.978;2023-07-20T13:20:04;1.58;;;0.80;;
15240;SDS011;7723;52.170;9.978;2023-07-20T13:22:35;0.70;;;0.70;;
15240;SDS011;7723;52.170;9.978;2023-07-20T13:25:02;1.00;;;0.70;;
15240;SDS011;7723;52.170;9.978;2023-07-20T13:27:29;0.80;;;0.80;;
15240;SDS011;7723;52.170;9.978;2023-07-20T13:29:57;1.13;;;1.02;;
15240;SDS011;7723;52.170;9.978;2023-07-20T13:32:25;0.90;;;0.70;;
15240;SDS011;7723;52.170;9.978;2023-07-20T13:34:52;1.55;;;0.98;;
15240;SDS011;7723;52.170;9.978;2023-07-20T13:37:21;0.80;;;0.77;;
15240;SDS011;7723;52.170;9.978;2023-07-20T13:39:49;0.90;;;0.90;;
15240;SDS011;7723;52.170;9.978;2023-07-20T13:42:16;1.17;;;0.88;;
15240;SDS011;7723;52.170;9.978;2023-07-20T13:44:43;1.08;;;0.70;;
15240;SDS011;7723;52.170;9.978;2023-07-20T13:47:11;1.67;;;1.05;;
15240;SDS011;7723;52.170;9.978;2023-07-20T13:49:38;0.80;;;0.80;;
15240;SDS011;7723;52.170;9.978;2023-07-20T13:52:06;1.88;;;0.77;;
15240;SDS011;7723;52.170;9.978;2023-07-20T13:54:35;0.90;;;0.80;;
15240;SDS011;7723;52.170;9.978;2023-07-20T13:57:02;0.95;;;0.70;;
15240;SDS011;7723;52.170;9.978;2023-07-20T13:59:30;0.85;;;0.82;;
15240;SDS011;7723;52.170;9.978;2023-07-20T14:01:57;0.50;;;0.50;;
15240;SDS011;7723;52.170;9.978;2023-07-20T14:04:24;0.57;;;0.55;;
15240;SDS011;7723;52.170;9.978;2023-07-20T14:06:51;2.25;;;1.00;;
15240;SDS011;7723;52.170;9.978;2023-07-20T14:09:18;0.85;;;0.60;;
15240;SDS011;7723;52.170;9.978;2023-07-20T14:11:47;2.97;;;0.80;;
15240;SDS011;7723;52.170;9.978;2023-07-20T14:14:14;1.42;;;1.00;;
15240;SDS011;7723;52.170;9.978;2023-07-20T14:16:41;0.70;;;0.70;;
15240;SDS011;7723;52.170;9.978;2023-07-20T14:19:08;1.67;;;0.90;;
15240;SDS011;7723;52.170;9.978;2023-07-20T14:21:36;0.70;;;0.70;;
15240;SDS011;7723;52.170;9.978;2023-07-20T14:24:03;1.15;;;0.80;;
15240;SDS011;7723;52.170;9.978;2023-07-20T14:26:31;0.70;;;0.70;;
15240;SDS011;7723;52.170;9.978;2023-07-20T14:29:00;1.52;;;0.60;;
15240;SDS011;7723;52.170;9.978;2023-07-20T14:31:27;2.40;;;0.80;;
15240;SDS011;7723;52.170;9.978;2023-07-20T14:33:54;2.53;;;0.88;;
15240;SDS011;7723;52.170;9.978;2023-07-20T14:36:21;2.78;;;1.00;;
15240;SDS011;7723;52.170;9.978;2023-07-20T14:38:48;1.42;;;0.70;;
15240;SDS011;7723;52.170;9.978;2023-07-20T14:41:16;0.70;;;0.70;;
15240;SDS011;7723;52.170;9.978;2023-07-20T14:43:43;3.05;;;1.33;;
15240;SDS011;7723;52.170;9.978;2023-07-20T14:46:11;0.80;;;0.75;;
15240;SDS011;7723;52.170;9.978;2023-07-20T14:48:38;1.55;;;0.90;;
15240;SDS011;7723;52.170;9.978;2023-07-20T14:51:05;1.50;;;0.77;;
15240;SDS011;7723;52.170;9.978;2023-07-20T14:53:32;1.95;;;0.63;;
15240;SDS011;7723;52.170;9.978;2023-07-20T14:56:00;0.95;;;0.63;;
15240;SDS011;7723;52.170;9.978;2023-07-20T14:58:27;2.05;;;0.80;;
15240;SDS011;7723;52.170;9.978;2023-07-20T15:00:54;1.70;;;0.90;;
15240;SDS011;7723;52.170;9.978;2023-07-20T15:03:23;2.10;;;0.77;;
15240;SDS011;7723;52.170;9.978;2023-07-20T15:05:50;1.17;;;0.82;;
15240;SDS011;7723;52.170;9.978;2023-07-20T15:08:17;0.95;;;0.70;;
15240;SDS011;7723;52.170;9.978;2023-07-20T15:10:45;0.70;;;0.63;;
15240;SDS011;7723;52.170;9.978;2023-07-20T15:13:12;2.05;;;0.80;;
15240;SDS011;7723;52.170;9.978;2023-07-20T15:15:39;1.08;;;0.95;;